Time;durP1;ratioP1;P1;durP2;ratioP2;P2;SDS_P1;SDS_P2;PMS_P1;PMS_P2;Temp;Humidity;BMP_temperature;BMP_pressure;BME280_temperature;BME280_humidity;BME280_pressure;Samples;Min_cycle;Max_cycle;Signal;HPM_P1;HPM_P2
2022/01/30 00:01:45;;;;;;;3.80;2.37;;;;;;;-1.21;97.80;96725.59;1701143;83;20899;-68
2022/01/30 00:04:11;;;;;;;5.62;3.55;;;;;;;-1.18;97.88;96729.56;1702963;83;20904;-73
2022/01/30 00:06:38;;;;;;;5.75;3.20;;;;;;;-1.14;97.90;96724.09;1715293;83;20904;-64
2022/01/30 00:09:09;;;;;;;3.58;2.27;;;;;;;-1.11;97.82;96720.97;1716588;82;20938;-75
2022/01/30 00:11:37;;;;;;;5.17;2.87;;;;;;;-1.05;97.88;96704.20;1712337;82;21134;-73
2022/01/30 00:14:05;;;;;;;3.67;2.40;;;;;;;-0.99;97.98;96697.98;1695008;83;21062;-70
2022/01/30 00:16:36;;;;;;;2.75;1.82;;;;;;;-0.93;98.03;96689.08;1707418;83;21444;-64
2022/01/30 00:19:13;;;;;;;4.75;2.67;;;;;;;-0.89;98.19;96695.42;1672084;83;21022;-74
2022/01/30 00:21:37;;;;;;;3.30;2.17;;;;;;;-0.84;98.15;96688.91;1693935;83;21016;-66
2022/01/30 00:24:13;;;;;;;4.22;1.90;;;;;;;-0.80;98.18;96680.27;1700477;83;21121;-67
2022/01/30 00:26:38;;;;;;;3.62;2.08;;;;;;;-0.74;97.98;96674.54;1682977;83;20972;-69
2022/01/30 00:29:04;;;;;;;2.85;1.90;;;;;;;-0.68;97.90;96678.78;1684232;83;20900;-67
2022/01/30 00:31:33;;;;;;;2.22;1.57;;;;;;;-0.62;97.91;96675.17;1691502;82;21026;-70
2022/01/30 00:36:27;;;;;;;3.60;2.17;;;;;;;-0.50;97.61;96658.70;1711290;83;21129;-70
2022/01/30 00:38:54;;;;;;;4.17;2.10;;;;;;;-0.45;97.55;96640.33;1709956;83;21534;-71
2022/01/30 00:41:21;;;;;;;2.12;1.57;;;;;;;-0.39;97.49;96636.67;1708930;82;20955;-71
2022/01/30 00:43:47;;;;;;;2.75;1.70;;;;;;;-0.33;97.46;96623.03;1683625;83;20941;-72
2022/01/30 00:46:14;;;;;;;3.22;1.72;;;;;;;-0.26;97.27;96629.64;1708115;83;21431;-74
2022/01/30 00:48:41;;;;;;;3.75;1.75;;;;;;;-0.22;97.18;96607.56;1698483;83;21137;-70
2022/01/30 00:51:07;;;;;;;2.95;1.72;;;;;;;-0.17;97.18;96605.77;1700866;83;20932;-65
2022/01/30 00:53:34;;;;;;;2.30;1.50;;;;;;;-0.12;97.02;96595.23;1698417;83;21032;-70
2022/01/30 00:56:04;;;;;;;2.33;1.70;;;;;;;-0.09;97.04;96578.14;1707193;83;20992;-67
2022/01/30 00:58:32;;;;;;;2.77;1.62;;;;;;;-0.05;97.01;96578.69;1710076;83;20916;-64
2022/01/30 01:00:58;;;;;;;2.10;1.37;;;;;;;-0.02;97.01;96590.55;1694873;83;21127;-73
2022/01/30 01:03:26;;;;;;;2.42;1.50;;;;;;;0.02;96.76;96575.84;1714714;82;20908;-67
2022/01/30 01:05:53;;;;;;;4.35;1.60;;;;;;;0.05;96.78;96558.20;1696904;83;21551;-65
2022/01/30 01:08:36;;;;;;;2.35;1.37;;;;;;;0.09;96.80;96568.50;1696293;83;20972;-65
2022/01/30 01:14:11;;;;;;;1.40;1.15;;;;;;;0.13;97.19;96541.12;1689046;83;21081;-69
2022/01/30 01:24:13;;;;;;;1.57;1.00;;;;;;;0.18;97.71;96555.62;1707927;83;21632;-64
2022/01/30 01:26:40;;;;;;;1.25;1.00;;;;;;;0.22;97.85;96538.24;1694827;83;21814;-66
2022/01/30 01:29:07;;;;;;;1.27;1.10;;;;;;;0.23;97.72;96518.77;1696717;83;21078;-67
2022/01/30 01:31:33;;;;;;;1.22;1.00;;;;;;;0.23;97.69;96517.45;1699811;82;20911;-65
2022/01/30 01:34:30;;;;;;;1.60;1.27;;;;;;;0.25;97.69;96510.08;1721105;83;20939;-64
2022/01/30 01:36:47;;;;;;;1.02;0.80;;;;;;;0.30;97.72;96508.26;1713559;83;20986;-68
2022/01/30 01:39:14;;;;;;;2.62;1.10;;;;;;;0.32;97.62;96486.92;1708472;83;21767;-67
2022/01/30 01:41:41;;;;;;;1.37;1.12;;;;;;;0.33;97.65;96489.28;1704773;83;21543;-63
2022/01/30 01:44:23;;;;;;;1.40;1.12;;;;;;;0.36;97.63;96477.44;1690460;83;20939;-63
2022/01/30 01:46:50;;;;;;;4.37;0.88;;;;;;;0.39;97.68;96466.38;1694906;83;20975;-63
2022/01/30 01:49:26;;;;;;;1.25;0.90;;;;;;;0.42;97.64;96461.91;1697931;83;21404;-67
2022/01/30 01:52:03;;;;;;;1.62;1.15;;;;;;;0.42;97.64;96459.28;1689402;83;21655;-64
2022/01/30 01:54:19;;;;;;;1.32;1.10;;;;;;;0.43;97.64;96428.72;1692362;82;21019;-64
2022/01/30 01:56:46;;;;;;;3.35;2.58;;;;;;;0.46;97.75;96436.63;1701838;83;21467;-63
2022/01/30 01:59:15;;;;;;;1.35;1.20;;;;;;;0.48;97.75;96439.26;1644609;83;21227;-65
2022/01/30 02:01:48;;;;;;;5.92;2.70;;;;;;;0.51;97.63;96420.81;1657083;83;20986;-65
2022/01/30 02:04:12;;;;;;;2.35;1.60;;;;;;;0.51;97.63;96408.44;1689168;83;21499;-59
2022/01/30 02:06:39;;;;;;;3.33;2.47;;;;;;;0.51;97.65;96391.84;1704310;83;21475;-60
2022/01/30 02:09:11;;;;;;;2.05;1.10;;;;;;;0.52;97.63;96400.78;1703473;83;21011;-63
2022/01/30 02:11:41;;;;;;;2.75;1.37;;;;;;;0.55;97.57;96382.34;1686035;83;20940;-59
2022/01/30 02:25:48;;;;;;;1.72;1.00;;;;;;;0.71;97.04;96354.14;1695077;82;21527;-64
2022/01/30 02:27:32;;;;;;;1.35;0.70;;;;;;;0.74;96.96;96354.38;1654433;83;21041;-60
2022/01/30 02:29:57;;;;;;;1.50;1.00;;;;;;;0.77;96.82;96355.70;1695937;83;21197;-61
2022/01/30 02:32:24;;;;;;;1.12;0.70;;;;;;;0.79;96.63;96333.29;1690090;83;20896;-61
2022/01/30 02:34:50;;;;;;;1.22;0.72;;;;;;;0.82;96.40;96323.54;1705086;83;21592;-60
2022/01/30 02:37:17;;;;;;;1.37;0.75;;;;;;;0.86;96.34;96310.08;1693060;83;20861;-60
2022/01/30 02:39:45;;;;;;;1.20;0.80;;;;;;;0.90;96.01;96328.24;1689416;83;20939;-60
2022/01/30 02:42:15;;;;;;;0.82;0.60;;;;;;;0.95;95.99;96321.64;1715869;83;21688;-64
2022/01/30 02:44:48;;;;;;;1.37;0.80;;;;;;;0.99;95.92;96311.36;1714238;83;20963;-64
2022/01/30 02:47:23;;;;;;;0.90;0.80;;;;;;;1.03;96.15;96310.55;1701618;82;20935;-66
2022/01/30 02:49:44;;;;;;;0.80;0.70;;;;;;;1.05;96.22;96303.16;1694408;83;20988;-65
2022/01/30 02:52:10;;;;;;;3.30;0.88;;;;;;;1.06;96.03;96292.08;1683225;82;20983;-63
2022/01/30 02:54:37;;;;;;;0.98;0.60;;;;;;;1.08;96.07;96283.36;1673603;83;21739;-64
2022/01/30 02:57:06;;;;;;;1.00;0.62;;;;;;;1.07;95.71;96280.45;1709456;83;21010;-61
2022/01/30 02:59:33;;;;;;;1.42;0.90;;;;;;;1.09;95.51;96283.08;1697739;83;21419;-61
2022/01/30 03:02:01;;;;;;;0.90;0.80;;;;;;;1.10;95.54;96272.81;1703362;83;20916;-65
2022/01/30 03:04:28;;;;;;;1.90;1.05;;;;;;;1.09;95.48;96292.31;1702683;83;20924;-63
2022/01/30 03:06:55;;;;;;;0.93;0.70;;;;;;;1.11;95.53;96271.73;1697705;83;21120;-61
2022/01/30 03:09:23;;;;;;;1.62;0.70;;;;;;;1.10;95.63;96291.27;1700714;83;20991;-64
2022/01/30 03:11:51;;;;;;;1.07;0.70;;;;;;;1.11;95.68;96283.59;1699770;83;20987;-60
2022/01/30 03:14:17;;;;;;;1.20;0.80;;;;;;;1.11;95.88;96251.95;1699345;83;21066;-65
2022/01/30 03:16:44;;;;;;;0.98;0.65;;;;;;;1.08;95.97;96265.70;1690346;83;21039;-62
2022/01/30 03:19:12;;;;;;;1.00;0.60;;;;;;;1.10;96.21;96266.22;1679244;83;21200;-61
2022/01/30 03:21:39;;;;;;;0.57;0.55;;;;;;;1.10;96.42;96236.41;1690122;83;20952;-65
2022/01/30 03:24:06;;;;;;;1.22;0.70;;;;;;;1.09;96.52;96250.65;1697313;83;20987;-62
2022/01/30 03:26:38;;;;;;;0.70;0.60;;;;;;;1.11;96.50;96250.64;1704376;83;21024;-61
2022/01/30 03:29:08;;;;;;;0.88;0.57;;;;;;;1.14;96.47;96246.14;1710731;83;20872;-61
2022/01/30 03:31:39;;;;;;;0.55;0.50;;;;;;;1.15;96.46;96243.78;1698056;83;21388;-65
2022/01/30 03:34:09;;;;;;;0.70;0.70;;;;;;;1.17;96.50;96246.92;1681205;83;20892;-64
2022/01/30 03:36:38;;;;;;;1.17;0.60;;;;;;;1.21;96.46;96233.97;1689659;83;20948;-63
2022/01/30 03:39:05;;;;;;;0.85;0.70;;;;;;;1.25;96.44;96235.78;1707691;83;20992;-63
2022/01/30 03:41:32;;;;;;;1.30;0.55;;;;;;;1.29;96.40;96237.36;1706296;83;20990;-64
2022/01/30 03:43:59;;;;;;;0.72;0.60;;;;;;;1.33;96.41;96232.58;1712358;83;21153;-61
2022/01/30 03:46:27;;;;;;;0.53;0.53;;;;;;;1.39;96.39;96227.52;1671783;83;21067;-62
2022/01/30 03:48:54;;;;;;;0.72;0.60;;;;;;;1.46;96.14;96236.99;1699056;82;21035;-61
2022/01/30 03:51:29;;;;;;;0.75;0.55;;;;;;;1.55;95.58;96261.73;1705626;83;20936;-62
2022/01/30 03:53:57;;;;;;;1.27;0.60;;;;;;;1.64;94.97;96224.45;1714486;83;21400;-64
2022/01/30 03:56:25;;;;;;;1.65;0.60;;;;;;;1.73;94.58;96257.10;1705837;83;21015;-64
2022/01/30 03:58:53;;;;;;;0.82;0.70;;;;;;;1.81;93.46;96224.32;1711484;82;21474;-63
2022/01/30 04:01:21;;;;;;;0.70;0.60;;;;;;;1.85;92.89;96237.74;1708902;83;22512;-65
2022/01/30 04:03:48;;;;;;;0.85;0.50;;;;;;;1.90;92.93;96251.70;1705119;83;21030;-63
2022/01/30 04:06:16;;;;;;;0.98;0.62;;;;;;;1.91;91.98;96240.58;1702270;83;20983;-63
2022/01/30 04:08:44;;;;;;;1.00;0.80;;;;;;;1.90;91.85;96232.42;1694811;83;21498;-65
2022/01/30 04:11:14;;;;;;;0.75;0.70;;;;;;;1.90;91.94;96232.42;1675241;83;20927;-64
2022/01/30 04:13:46;;;;;;;3.60;0.60;;;;;;;1.90;91.42;96209.98;1695527;83;20880;-66
2022/01/30 04:19:16;;;;;;;0.88;0.70;;;;;;;1.93;90.90;96231.88;1670199;84;21642;-65
2022/01/30 04:21:49;;;;;;;2.50;0.75;;;;;;;1.93;90.95;96200.19;1686470;83;21732;-66
2022/01/30 04:24:34;;;;;;;;;;;;;;;1.93;90.25;96238.48;1725122;81;21609;-61
2022/01/30 04:27:20;;;;;;;0.95;0.65;;;;;;;1.99;90.49;96222.83;1731343;82;20143;-65
2022/01/30 04:29:50;;;;;;;1.00;0.88;;;;;;;2.02;90.46;96210.40;1717512;81;21018;-62
2022/01/30 04:32:20;;;;;;;0.88;0.68;;;;;;;2.05;90.77;96207.98;1703787;82;21011;-65
2022/01/30 04:34:59;;;;;;;1.10;0.80;;;;;;;2.05;91.36;96215.90;1707404;82;21205;-65
2022/01/30 04:37:53;;;;;;;1.07;0.90;;;;;;;2.00;91.68;96201.42;1707566;82;21031;-61
2022/01/30 04:55:13;;;;;;;0.98;0.80;;;;;;;1.95;92.74;96205.45;1730709;82;21174;-60
2022/01/30 04:57:20;;;;;;;1.62;0.85;;;;;;;1.93;92.85;96227.92;1721619;81;21569;-62
2022/01/30 05:00:08;;;;;;;;;;;;;;;1.90;92.98;96222.66;1736934;81;21611;-64
2022/01/30 05:02:44;;;;;;;5.12;1.05;;;;;;;1.88;93.04;96190.47;1722907;82;21108;-63
2022/01/30 05:08:23;;;;;;;1.42;1.00;;;;;;;1.83;93.60;96202.39;1719376;82;21451;-64
2022/01/30 05:10:53;;;;;;;2.65;1.20;;;;;;;1.81;93.68;96192.64;1707374;81;21009;-62
2022/01/30 05:13:34;;;;;;;2.65;0.95;;;;;;;1.77;93.81;96182.89;1730753;82;20978;-61
2022/01/30 05:16:12;;;;;;;1.40;1.00;;;;;;;1.75;93.75;96178.42;1725935;82;21127;-64
2022/01/30 05:18:58;;;;;;;1.25;1.00;;;;;;;1.74;93.69;96172.38;1716945;81;21065;-66
2022/01/30 05:21:43;;;;;;;2.05;1.00;;;;;;;1.75;93.49;96164.70;1722716;82;21151;-66
2022/01/30 05:24:30;;;;;;;1.87;1.10;;;;;;;1.77;93.33;96174.97;1719317;82;20990;-67
2022/01/30 05:27:10;;;;;;;1.82;1.30;;;;;;;1.75;93.33;96182.38;1705933;81;20930;-63
2022/01/30 05:29:45;;;;;;;1.20;1.10;;;;;;;1.74;93.39;96186.90;1732381;82;21118;-67
2022/01/30 05:32:15;;;;;;;1.42;1.02;;;;;;;1.76;93.53;96198.48;1722958;81;21066;-71
2022/01/30 05:34:45;;;;;;;2.67;1.30;;;;;;;1.76;93.90;96191.89;1730567;81;20932;-72
2022/01/30 05:37:18;;;;;;;1.20;1.10;;;;;;;1.75;93.84;96188.45;1722533;81;21442;-65
2022/01/30 05:40:06;;;;;;;2.75;1.12;;;;;;;1.74;94.16;96200.09;1724917;82;20979;-68
2022/01/30 05:42:42;;;;;;;2.12;1.10;;;;;;;1.72;94.34;96194.84;1689445;81;21119;-67
2022/01/30 05:45:29;;;;;;;1.47;1.05;;;;;;;1.70;94.43;96186.38;1732492;81;21034;-71
2022/01/30 05:48:04;;;;;;;2.30;1.25;;;;;;;1.70;94.44;96195.63;1731169;81;21019;-67
2022/01/30 05:50:39;;;;;;;2.40;1.30;;;;;;;1.71;94.50;96186.65;1714055;82;21102;-71
2022/01/30 05:53:08;;;;;;;1.47;1.00;;;;;;;1.71;94.36;96183.48;1729151;82;20876;-61
2022/01/30 05:55:52;;;;;;;1.57;1.15;;;;;;;1.72;94.24;96190.87;1732553;81;21836;-64
2022/01/30 05:58:20;;;;;;;2.55;1.40;;;;;;;1.74;94.15;96196.66;1739604;81;20943;-64
2022/01/30 06:00:51;;;;;;;2.05;1.25;;;;;;;1.76;94.12;96203.24;1733252;82;21053;-65
2022/01/30 06:03:18;;;;;;;2.20;1.20;;;;;;;1.79;94.01;96215.10;1729053;81;21050;-63
2022/01/30 06:05:46;;;;;;;2.27;1.30;;;;;;;1.81;93.90;96201.09;1738635;82;20975;-67
2022/01/30 06:08:28;;;;;;;1.67;1.17;;;;;;;1.83;93.77;96193.67;1726142;82;21073;-67
2022/01/30 06:10:44;;;;;;;2.12;1.40;;;;;;;1.84;93.74;96207.11;1721340;82;20881;-67
2022/01/30 06:13:12;;;;;;;3.27;1.12;;;;;;;1.87;93.67;96190.73;1726419;81;20951;-65
2022/01/30 06:15:45;;;;;;;2.62;1.42;;;;;;;1.90;93.46;96200.73;1713493;82;20986;-67
2022/01/30 06:18:14;;;;;;;2.37;1.07;;;;;;;1.91;93.35;96189.09;1733736;81;20911;-68
2022/01/30 06:21:01;;;;;;;2.15;1.15;;;;;;;1.93;93.22;96196.23;1721256;82;21123;-64
2022/01/30 06:23:47;;;;;;;3.92;1.50;;;;;;;1.96;92.85;96218.09;1723513;81;21132;-65
2022/01/30 06:26:33;;;;;;;;;;;;;;;1.96;92.62;96199.61;1734988;82;22529;-66
2022/01/30 06:29:18;;;;;;;2.40;1.17;;;;;;;1.95;92.46;96214.69;1726503;82;20080;-67
2022/01/30 06:32:05;;;;;;;3.25;1.40;;;;;;;1.97;92.32;96201.20;1734608;81;21118;-66
2022/01/30 06:34:34;;;;;;;3.45;1.17;;;;;;;1.97;92.26;96195.92;1700836;82;21116;-64
2022/01/30 06:37:15;;;;;;;3.77;1.17;;;;;;;1.97;91.81;96202.00;1730444;82;20876;-66
2022/01/30 06:39:45;;;;;;;2.65;1.20;;;;;;;2.00;91.52;96205.94;1729997;82;21028;-61
2022/01/30 06:42:25;;;;;;;6.50;1.55;;;;;;;1.99;91.18;96182.70;1701778;82;21414;-60
2022/01/30 06:45:11;;;;;;;3.02;1.15;;;;;;;1.98;90.69;96190.35;1727141;82;21068;-61
2022/01/30 06:47:56;;;;;;;2.37;1.37;;;;;;;1.98;90.40;96178.99;1732524;82;21110;-60
2022/01/30 06:50:38;;;;;;;3.55;1.70;;;;;;;1.97;90.25;96168.20;1728946;82;21585;-66
2022/01/30 06:53:25;;;;;;;5.50;2.33;;;;;;;2.00;89.80;96169.73;1612884;87;21258;-62
2022/01/30 06:56:10;;;;;;;4.12;2.20;;;;;;;2.03;89.67;96165.22;1548834;89;21119;-67
2022/01/30 06:58:56;;;;;;;5.45;1.70;;;;;;;2.06;89.81;96173.12;1670155;81;20984;-66
2022/01/30 07:01:32;;;;;;;2.70;1.30;;;;;;;2.09;89.65;96162.00;1717063;82;21125;-65
2022/01/30 07:04:01;;;;;;;2.85;1.30;;;;;;;2.14;89.67;96150.59;1711768;82;20982;-60
2022/01/30 07:06:35;;;;;;;3.42;2.15;;;;;;;2.17;89.28;96164.02;1696101;82;20942;-60
2022/01/30 07:09:03;;;;;;;4.08;1.20;;;;;;;2.18;89.22;96164.28;1724957;82;21019;-64
2022/01/30 07:11:31;;;;;;;3.42;1.30;;;;;;;2.18;89.06;96163.48;1736345;82;20990;-62
2022/01/30 07:13:58;;;;;;;3.10;1.17;;;;;;;2.18;89.16;96162.16;1727908;82;21037;-59
2022/01/30 07:16:25;;;;;;;3.33;1.50;;;;;;;2.20;89.17;96167.95;1742179;81;21370;-64
2022/01/30 07:18:53;;;;;;;4.28;1.92;;;;;;;2.22;89.04;96153.92;1731151;82;20971;-63
2022/01/30 07:21:20;;;;;;;5.20;1.98;;;;;;;2.24;88.87;96159.18;1732814;82;21094;-63
2022/01/30 07:26:21;;;;;;;6.47;2.15;;;;;;;2.28;88.47;96166.81;1733051;82;21737;-60
2022/01/30 07:28:49;;;;;;;4.15;1.95;;;;;;;2.32;88.39;96139.29;1734355;81;21007;-65
2022/01/30 07:31:16;;;;;;;19.32;7.85;;;;;;;2.33;88.04;96144.28;1730415;81;20920;-63
2022/01/30 07:33:43;;;;;;;6.17;2.83;;;;;;;2.35;87.87;96123.67;1725428;81;21459;-59
2022/01/30 07:36:10;;;;;;;5.37;2.20;;;;;;;2.37;87.42;96125.49;1722991;82;21055;-65
2022/01/30 07:38:38;;;;;;;4.87;1.60;;;;;;;2.38;87.05;96116.48;1734521;81;21164;-62
2022/01/30 07:41:05;;;;;;;4.67;1.80;;;;;;;2.39;86.89;96135.77;1715096;82;21395;-64
2022/01/30 07:43:34;;;;;;;5.33;1.72;;;;;;;2.42;86.54;96124.11;1729354;81;21427;-63
2022/01/30 07:46:05;;;;;;;4.30;2.12;;;;;;;2.47;86.06;96124.59;1731591;82;21066;-60
2022/01/30 07:48:33;;;;;;;5.53;1.98;;;;;;;2.47;85.36;96126.67;1741775;81;20997;-62
2022/01/30 07:51:00;;;;;;;3.95;1.72;;;;;;;2.49;85.44;96111.88;1727502;81;21125;-63
2022/01/30 07:53:28;;;;;;;4.62;1.72;;;;;;;2.50;85.25;96134.56;1724418;81;20913;-65
2022/01/30 07:55:54;;;;;;;7.30;2.00;;;;;;;2.50;85.42;96124.00;1722776;81;20971;-60
2022/01/30 07:58:21;;;;;;;7.78;3.15;;;;;;;2.52;84.51;96129.25;1720904;82;23069;-61
2022/01/30 08:00:48;;;;;;;5.12;1.92;;;;;;;2.53;84.10;96157.27;1728631;82;21085;-64
2022/01/30 08:03:16;;;;;;;3.40;1.32;;;;;;;2.53;83.79;96134.80;1717400;81;21018;-63
2022/01/30 08:05:43;;;;;;;12.55;5.10;;;;;;;2.50;83.16;96118.19;1728428;81;20915;-62
2022/01/30 08:08:10;;;;;;;4.67;2.25;;;;;;;2.50;83.57;96126.11;1725272;82;21308;-63
2022/01/30 08:10:38;;;;;;;5.72;1.92;;;;;;;2.54;83.25;96127.66;1729954;82;20900;-63
2022/01/30 08:13:05;;;;;;;5.92;1.67;;;;;;;2.56;82.67;96140.85;1727209;82;20963;-60
2022/01/30 08:15:34;;;;;;;3.98;1.40;;;;;;;2.57;82.31;96121.27;1716708;82;21115;-60
2022/01/30 08:18:02;;;;;;;3.37;1.47;;;;;;;2.60;81.91;96129.16;1718637;82;21018;-60
2022/01/30 08:20:29;;;;;;;6.20;1.52;;;;;;;2.61;81.76;96124.14;1724864;82;21025;-62
2022/01/30 08:22:56;;;;;;;6.10;1.80;;;;;;;2.64;81.20;96124.34;1722133;82;20939;-63
2022/01/30 08:25:24;;;;;;;6.35;1.90;;;;;;;2.69;81.33;96124.28;1723344;82;21522;-59
2022/01/30 08:27:52;;;;;;;6.60;1.80;;;;;;;2.76;81.31;96099.59;1734250;82;21119;-63
2022/01/30 08:30:20;;;;;;;8.23;2.58;;;;;;;2.85;81.31;96106.34;1721557;81;20951;-60
2022/01/30 08:32:49;;;;;;;7.70;2.75;;;;;;;2.92;80.06;96113.94;1723511;82;20989;-60
2022/01/30 08:35:17;;;;;;;5.33;2.27;;;;;;;2.97;80.38;96088.19;1732641;82;20943;-63
2022/01/30 08:37:46;;;;;;;9.63;4.92;;;;;;;3.01;80.29;96108.25;1727312;82;21007;-63
2022/01/30 08:40:18;;;;;;;6.53;1.85;;;;;;;3.05;80.04;96115.84;1737697;82;21037;-62
2022/01/30 08:42:47;;;;;;;5.00;2.27;;;;;;;3.02;81.20;96125.14;1735482;82;21510;-64
2022/01/30 08:45:15;;;;;;;1030.58;527.52;;;;;;;2.89;82.45;96131.16;1732339;82;20962;-63
2022/01/30 08:47:45;;;;;;;5.33;1.98;;;;;;;2.78;83.01;96117.05;1733597;82;20983;-61
2022/01/30 08:50:14;;;;;;;5.15;1.72;;;;;;;2.77;83.32;96117.58;1733417;82;20979;-66
2022/01/30 08:52:43;;;;;;;5.45;1.98;;;;;;;2.84;83.44;96121.18;1735454;82;21684;-65
2022/01/30 08:55:13;;;;;;;3.52;1.67;;;;;;;2.96;83.30;96111.75;1732403;82;20987;-63
2022/01/30 08:57:39;;;;;;;5.10;1.65;;;;;;;3.05;83.01;96100.77;1734537;82;21109;-66
2022/01/30 09:00:11;;;;;;;6.30;2.80;;;;;;;3.08;82.50;96096.77;1740729;82;21086;-61
2022/01/30 09:02:38;;;;;;;6.97;2.00;;;;;;;3.10;82.80;96090.64;1700931;83;21086;-67
2022/01/30 09:05:07;;;;;;;6.10;1.70;;;;;;;3.16;82.19;96094.24;1698196;83;21069;-62
2022/01/30 09:07:38;;;;;;;6.83;2.25;;;;;;;3.22;81.79;96088.34;1702810;83;21434;-64
2022/01/30 09:10:07;;;;;;;4.45;1.90;;;;;;;3.27;80.98;96089.59;1685473;84;21418;-62
2022/01/30 09:12:34;;;;;;;5.47;1.75;;;;;;;3.25;80.84;96079.84;1684983;84;21414;-60
2022/01/30 09:15:05;;;;;;;4.55;1.67;;;;;;;3.24;80.99;96083.55;1689094;83;20931;-61
2022/01/30 09:17:32;;;;;;;8.43;2.00;;;;;;;3.26;80.00;96077.42;1684618;83;21777;-63
2022/01/30 09:20:00;;;;;;;7.15;1.67;;;;;;;3.28;80.18;96080.03;1706104;83;20899;-61
2022/01/30 09:22:27;;;;;;;6.05;2.12;;;;;;;3.31;79.36;96094.55;1700163;84;20942;-63
2022/01/30 09:24:53;;;;;;;10.28;2.35;;;;;;;3.27;79.88;96073.72;1697129;83;20913;-61
2022/01/30 09:27:20;;;;;;;8.43;2.05;;;;;;;3.26;80.39;96073.45;1691429;84;21479;-60
2022/01/30 09:29:46;;;;;;;6.22;1.87;;;;;;;3.31;80.78;96082.64;1678860;84;21129;-60
2022/01/30 09:32:14;;;;;;;5.80;2.00;;;;;;;3.35;81.03;96091.56;1683153;84;20942;-63
2022/01/30 09:34:41;;;;;;;5.22;1.70;;;;;;;3.28;81.15;96091.14;1689536;83;20981;-66
2022/01/30 09:37:10;;;;;;;8.08;2.22;;;;;;;3.16;81.55;96090.80;1695846;83;20947;-62
2022/01/30 09:39:37;;;;;;;9.23;2.02;;;;;;;3.06;81.97;96074.55;1685475;83;20894;-62
2022/01/30 09:42:06;;;;;;;5.87;1.82;;;;;;;2.92;82.60;96094.86;1689178;84;21119;-61
2022/01/30 09:44:39;;;;;;;6.42;1.80;;;;;;;2.78;83.70;96117.28;1680425;84;20982;-63
2022/01/30 09:47:16;;;;;;;11.40;3.83;;;;;;;2.63;84.30;96125.43;1669737;84;20905;-60
2022/01/30 09:49:50;;;;;;;6.83;1.87;;;;;;;2.51;84.98;96076.69;1676751;85;21025;-61
2022/01/30 09:52:18;;;;;;;4.85;1.30;;;;;;;2.34;84.80;96060.00;1680856;84;20975;-67
2022/01/30 09:54:45;;;;;;;2.50;1.25;;;;;;;2.22;84.59;96082.08;1680677;84;21114;-60
2022/01/30 09:57:12;;;;;;;4.90;1.02;;;;;;;2.07;84.50;96090.95;1683801;84;20946;-63
2022/01/30 09:59:39;;;;;;;5.72;1.07;;;;;;;1.85;85.02;96067.46;1699683;83;21069;-65
2022/01/30 10:02:07;;;;;;;2.20;0.60;;;;;;;1.64;85.71;96104.38;1691664;84;21009;-69
2022/01/30 10:04:35;;;;;;;1.32;0.40;;;;;;;1.46;87.70;96089.25;1691107;84;21030;-70
2022/01/30 10:07:09;;;;;;;0.95;0.40;;;;;;;1.23;88.75;96122.39;1685734;84;21415;-65
2022/01/30 10:09:36;;;;;;;1.95;0.37;;;;;;;1.02;89.56;96050.58;1703516;83;21394;-65
2022/01/30 10:12:13;;;;;;;0.45;0.30;;;;;;;0.90;89.54;96055.41;1694304;83;20930;-63
2022/01/30 10:15:03;;;;;;;1.47;0.50;;;;;;;0.91;89.53;96057.00;1730471;82;21112;-67
2022/01/30 10:17:37;;;;;;;0.95;0.55;;;;;;;0.99;89.00;96030.03;1729525;81;21482;-65
2022/01/30 10:20:11;;;;;;;2.85;0.68;;;;;;;1.07;88.69;96016.78;1735513;82;21102;-62
2022/01/30 10:23:01;;;;;;;1.77;0.80;;;;;;;1.15;88.27;96025.43;1731861;82;20923;-64
2022/01/30 10:25:36;;;;;;;4.53;0.90;;;;;;;1.31;87.85;96034.77;1736307;82;20860;-67
2022/01/30 10:28:15;;;;;;;2.47;0.80;;;;;;;1.54;86.92;96021.34;1734389;82;20948;-67
2022/01/30 10:30:49;;;;;;;2.02;0.93;;;;;;;1.77;86.86;96017.91;1741151;82;21494;-62
2022/01/30 10:33:22;;;;;;;1.62;0.90;;;;;;;2.14;86.67;96023.29;1740870;81;21066;-67
2022/01/30 10:35:57;;;;;;;3.08;1.25;;;;;;;2.46;85.18;96000.91;1733883;81;20907;-65
2022/01/30 10:38:36;;;;;;;;;;;;;;;2.76;85.15;95995.16;1739914;82;20887;-60
2022/01/30 10:41:17;;;;;;;4.30;0.90;;;;;;;3.02;83.04;95994.75;1738299;82;20060;-64
2022/01/30 10:44:01;;;;;;;2.10;0.90;;;;;;;3.19;82.73;95993.67;1732449;82;21447;-65
2022/01/30 10:46:31;;;;;;;5.55;1.00;;;;;;;3.36;80.60;95979.35;1736836;82;21090;-59
2022/01/30 10:49:02;;;;;;;2.02;0.82;;;;;;;3.53;80.49;95980.89;1740481;82;21062;-64
2022/01/30 10:51:31;;;;;;;2.87;1.00;;;;;;;3.66;78.49;95970.83;1736848;82;21013;-67
2022/01/30 10:53:59;;;;;;;3.35;1.10;;;;;;;3.65;77.90;95970.58;1738501;82;20988;-67
2022/01/30 10:56:28;;;;;;;4.10;1.32;;;;;;;3.59;78.20;95970.97;1711414;82;20975;-66
2022/01/30 10:59:22;;;;;;;3.92;1.22;;;;;;;3.54;78.33;95982.98;1737915;82;21023;-61
2022/01/30 11:01:50;;;;;;;5.80;1.30;;;;;;;3.47;77.78;95970.14;1733729;82;20939;-68
2022/01/30 11:04:28;;;;;;;3.37;1.30;;;;;;;3.45;78.29;95967.80;1737311;82;20884;-64
2022/01/30 11:06:57;;;;;;;7.53;1.50;;;;;;;3.43;78.10;95956.72;1735771;82;21364;-60
2022/01/30 11:09:32;;;;;;;5.12;1.42;;;;;;;3.36;78.06;95942.30;1733323;82;20939;-63
2022/01/30 11:12:04;;;;;;;4.28;1.50;;;;;;;3.28;78.42;95939.00;1735527;82;21110;-65
2022/01/30 11:14:54;;;;;;;;;;;;;;;3.17;78.37;95946.89;1732420;82;20899;-67
2022/01/30 11:17:09;;;;;;;3.12;1.47;;;;;;;3.10;78.82;95946.48;1733116;82;20087;-66
2022/01/30 11:19:44;;;;;;;4.10;1.47;;;;;;;3.06;79.21;95943.63;1735286;82;21018;-63
2022/01/30 11:22:16;;;;;;;4.87;1.67;;;;;;;3.01;79.40;95929.19;1735680;82;26725;-64
2022/01/30 11:24:46;;;;;;;7.47;2.00;;;;;;;2.96;79.81;95935.09;1734254;82;21088;-66
2022/01/30 11:27:14;;;;;;;6.92;2.10;;;;;;;2.91;79.98;95931.21;1735990;82;21062;-65
2022/01/30 11:29:41;;;;;;;5.17;1.80;;;;;;;2.82;80.33;95932.42;1726076;82;20967;-60
2022/01/30 11:32:08;;;;;;;5.28;1.60;;;;;;;2.71;81.06;95923.86;1734537;82;21438;-61
2022/01/30 11:34:37;;;;;;;7.35;2.00;;;;;;;2.60;81.99;95952.08;1738225;82;20994;-62
2022/01/30 11:37:05;;;;;;;8.38;2.05;;;;;;;2.44;83.36;95919.83;1734328;81;21297;-65
2022/01/30 11:39:32;;;;;;;7.00;2.72;;;;;;;2.31;84.29;95917.90;1737281;82;20990;-62
2022/01/30 11:42:11;;;;;;;5.12;2.20;;;;;;;2.15;85.16;95902.03;1736718;82;20895;-66
2022/01/30 11:44:43;;;;;;;4.22;1.75;;;;;;;1.99;86.41;95885.64;1728644;82;20991;-61
2022/01/30 11:47:16;;;;;;;4.80;1.80;;;;;;;1.87;87.25;95880.00;1734287;81;20947;-69
2022/01/30 11:50:04;;;;;;;6.20;2.02;;;;;;;1.79;87.93;95883.82;1738068;82;21165;-65
2022/01/30 11:53:05;;;;;;;7.03;2.33;;;;;;;1.74;88.48;95882.56;1736126;82;20923;-63
2022/01/30 11:55:59;;;;;;;6.58;2.00;;;;;;;1.71;88.73;95871.25;1736662;82;20899;-64
2022/01/30 11:58:42;;;;;;;5.60;1.98;;;;;;;1.74;89.48;95889.17;1736096;82;21076;-61
2022/01/30 12:01:27;;;;;;;7.17;2.37;;;;;;;1.76;89.64;95867.23;1740336;81;21448;-66
2022/01/30 12:04:06;;;;;;;6.72;2.20;;;;;;;1.77;89.77;95861.66;1740724;82;21129;-69
2022/01/30 12:06:38;;;;;;;6.12;2.40;;;;;;;1.82;89.76;95839.67;1738071;81;20848;-67
2022/01/30 12:09:20;;;;;;;6.17;2.33;;;;;;;1.85;89.86;95862.87;1736926;82;20895;-68
2022/01/30 12:11:55;;;;;;;7.97;2.70;;;;;;;1.90;89.69;95865.44;1731281;82;20887;-61
2022/01/30 12:14:30;;;;;;;7.15;2.52;;;;;;;1.96;89.74;95862.97;1733549;82;20998;-64
2022/01/30 12:17:05;;;;;;;6.65;2.30;;;;;;;2.01;89.48;95865.53;1733770;82;20884;-65
2022/01/30 12:19:39;;;;;;;7.05;2.02;;;;;;;2.06;89.68;95850.94;1737116;82;20935;-65
2022/01/30 12:22:29;;;;;;;7.00;2.12;;;;;;;2.11;89.68;95864.59;1744735;82;21006;-61
2022/01/30 12:25:23;;;;;;;5.30;2.05;;;;;;;2.12;89.41;95868.27;1732735;82;21510;-62
2022/01/30 12:27:54;;;;;;;4.67;1.90;;;;;;;2.10;89.20;95883.62;1734257;82;21328;-63
2022/01/30 12:30:38;;;;;;;8.90;2.35;;;;;;;2.07;89.12;95860.44;1740515;82;22332;-67
2022/01/30 12:33:33;;;;;;;5.05;1.98;;;;;;;2.07;89.07;95861.77;1727890;82;20919;-64
2022/01/30 12:36:02;;;;;;;6.40;2.47;;;;;;;2.04;88.80;95851.77;1738497;82;21026;-60
2022/01/30 12:38:32;;;;;;;5.40;2.10;;;;;;;2.01;88.95;95848.38;1739274;82;21378;-60
2022/01/30 12:40:58;;;;;;;3.92;1.92;;;;;;;2.00;89.08;95852.10;1738296;82;20931;-60
2022/01/30 12:43:30;;;;;;;6.40;2.12;;;;;;;2.00;89.08;95852.10;1732504;82;21087;-66
2022/01/30 12:46:05;;;;;;;4.62;2.00;;;;;;;1.94;89.45;95854.55;1739875;82;20864;-68
2022/01/30 12:48:33;;;;;;;5.35;2.00;;;;;;;1.86;89.77;95860.49;1728175;82;20908;-67
2022/01/30 12:51:04;;;;;;;6.33;1.90;;;;;;;1.78;89.99;95848.72;1710659;82;21310;-65